sensor_id;sensor_type;location;lat;lon;timestamp;P1;durP1;ratioP1;P2;durP2;ratioP2
32760;SDS011;19126;47.472;7.850;2023-08-21T00:02:03;14.20;;;8.88;;
32760;SDS011;19126;47.472;7.850;2023-08-21T00:04:31;16.23;;;9.18;;
32760;SDS011;19126;47.472;7.850;2023-08-21T00:06:58;14.82;;;8.93;;
32760;SDS011;19126;47.472;7.850;2023-08-21T00:09:26;10.50;;;8.60;;
32760;SDS011;19126;47.472;7.850;2023-08-21T00:11:53;15.02;;;8.40;;
32760;SDS011;19126;47.472;7.850;2023-08-21T00:14:22;18.35;;;9.65;;
32760;SDS011;19126;47.472;7.850;2023-08-21T00:16:49;21.20;;;9.13;;
32760;SDS011;19126;47.472;7.850;2023-08-21T00:19:17;19.73;;;9.40;;
32760;SDS011;19126;47.472;7.850;2023-08-21T00:21:45;18.17;;;9.50;;
32760;SDS011;19126;47.472;7.850;2023-08-21T00:24:12;15.80;;;9.25;;
32760;SDS011;19126;47.472;7.850;2023-08-21T00:26:40;10.02;;;8.38;;
32760;SDS011;19126;47.472;7.850;2023-08-21T00:29:07;27.08;;;9.38;;
32760;SDS011;19126;47.472;7.850;2023-08-21T00:31:36;11.77;;;8.80;;
32760;SDS011;19126;47.472;7.850;2023-08-21T00:34:03;12.93;;;9.18;;
32760;SDS011;19126;47.472;7.850;2023-08-21T00:36:31;11.90;;;8.73;;
32760;SDS011;19126;47.472;7.850;2023-08-21T00:38:58;25.60;;;8.73;;
32760;SDS011;19126;47.472;7.850;2023-08-21T00:41:25;18.15;;;9.18;;
32760;SDS011;19126;47.472;7.850;2023-08-21T00:43:52;13.40;;;8.90;;
32760;SDS011;19126;47.472;7.850;2023-08-21T00:46:20;13.52;;;9.10;;
32760;SDS011;19126;47.472;7.850;2023-08-21T00:48:49;16.77;;;9.35;;
32760;SDS011;19126;47.472;7.850;2023-08-21T00:51:16;14.73;;;8.65;;
32760;SDS011;19126;47.472;7.850;2023-08-21T00:53:44;15.00;;;9.43;;
32760;SDS011;19126;47.472;7.850;2023-08-21T00:56:12;14.85;;;9.07;;
32760;SDS011;19126;47.472;7.850;2023-08-21T00:58:40;20.45;;;9.38;;
32760;SDS011;19126;47.472;7.850;2023-08-21T01:01:08;13.38;;;8.75;;
32760;SDS011;19126;47.472;7.850;2023-08-21T01:03:36;14.82;;;9.57;;
32760;SDS011;19126;47.472;7.850;2023-08-21T01:06:05;13.80;;;8.80;;
32760;SDS011;19126;47.472;7.850;2023-08-21T01:08:35;12.98;;;9.70;;
32760;SDS011;19126;47.472;7.850;2023-08-21T01:11:15;10.35;;;8.75;;
32760;SDS011;19126;47.472;7.850;2023-08-21T01:13:48;13.43;;;8.55;;
32760;SDS011;19126;47.472;7.850;2023-08-21T01:16:25;15.43;;;8.30;;
32760;SDS011;19126;47.472;7.850;2023-08-21T01:18:54;14.30;;;8.90;;
32760;SDS011;19126;47.472;7.850;2023-08-21T01:21:26;15.35;;;8.98;;
32760;SDS011;19126;47.472;7.850;2023-08-21T01:23:55;12.70;;;9.32;;
32760;SDS011;19126;47.472;7.850;2023-08-21T01:26:23;15.93;;;9.32;;
32760;SDS011;19126;47.472;7.850;2023-08-21T01:28:50;16.80;;;9.48;;
32760;SDS011;19126;47.472;7.850;2023-08-21T01:31:18;12.50;;;8.98;;
32760;SDS011;19126;47.472;7.850;2023-08-21T01:33:51;13.82;;;9.07;;
32760;SDS011;19126;47.472;7.850;2023-08-21T01:36:25;13.23;;;8.80;;
32760;SDS011;19126;47.472;7.850;2023-08-21T01:38:52;13.93;;;9.23;;
32760;SDS011;19126;47.472;7.850;2023-08-21T01:41:24;16.52;;;9.05;;
32760;SDS011;19126;47.472;7.850;2023-08-21T01:43:51;13.82;;;9.25;;
32760;SDS011;19126;47.472;7.850;2023-08-21T01:46:19;13.32;;;9.50;;
32760;SDS011;19126;47.472;7.850;2023-08-21T01:48:47;15.00;;;9.00;;
32760;SDS011;19126;47.472;7.850;2023-08-21T01:51:14;14.93;;;8.70;;
32760;SDS011;19126;47.472;7.850;2023-08-21T01:53:42;12.02;;;8.75;;
32760;SDS011;19126;47.472;7.850;2023-08-21T01:56:09;21.75;;;9.90;;
32760;SDS011;19126;47.472;7.850;2023-08-21T01:58:38;12.60;;;8.65;;
32760;SDS011;19126;47.472;7.850;2023-08-21T02:01:05;16.38;;;9.15;;
32760;SDS011;19126;47.472;7.850;2023-08-21T02:03:32;12.30;;;9.20;;
32760;SDS011;19126;47.472;7.850;2023-08-21T02:06:01;14.30;;;9.73;;
32760;SDS011;19126;47.472;7.850;2023-08-21T02:08:30;11.40;;;8.57;;
32760;SDS011;19126;47.472;7.850;2023-08-21T02:10:59;13.13;;;8.63;;
32760;SDS011;19126;47.472;7.850;2023-08-21T02:13:27;15.10;;;9.73;;
32760;SDS011;19126;47.472;7.850;2023-08-21T02:15:56;13.75;;;9.40;;
32760;SDS011;19126;47.472;7.850;2023-08-21T02:18:23;16.25;;;10.38;;
32760;SDS011;19126;47.472;7.850;2023-08-21T02:20:50;13.60;;;8.43;;
32760;SDS011;19126;47.472;7.850;2023-08-21T02:23:18;16.45;;;9.25;;
32760;SDS011;19126;47.472;7.850;2023-08-21T02:25:45;16.08;;;9.10;;
32760;SDS011;19126;47.472;7.850;2023-08-21T02:28:14;15.10;;;9.90;;
32760;SDS011;19126;47.472;7.850;2023-08-21T02:30:41;23.60;;;10.90;;
32760;SDS011;19126;47.472;7.850;2023-08-21T02:33:10;11.60;;;9.15;;
32760;SDS011;19126;47.472;7.850;2023-08-21T02:35:38;13.43;;;10.05;;
32760;SDS011;19126;47.472;7.850;2023-08-21T02:38:05;14.30;;;9.43;;
32760;SDS011;19126;47.472;7.850;2023-08-21T02:40:32;14.07;;;10.20;;
32760;SDS011;19126;47.472;7.850;2023-08-21T02:43:00;20.70;;;10.07;;
32760;SDS011;19126;47.472;7.850;2023-08-21T02:45:27;12.38;;;9.43;;
32760;SDS011;19126;47.472;7.850;2023-08-21T02:47:55;15.18;;;9.30;;
32760;SDS011;19126;47.472;7.850;2023-08-21T02:50:23;22.23;;;9.25;;
32760;SDS011;19126;47.472;7.850;2023-08-21T02:52:51;13.60;;;8.85;;
32760;SDS011;19126;47.472;7.850;2023-08-21T02:55:18;18.60;;;10.23;;
32760;SDS011;19126;47.472;7.850;2023-08-21T02:57:46;19.70;;;9.20;;
32760;SDS011;19126;47.472;7.850;2023-08-21T03:00:13;18.20;;;9.75;;
32760;SDS011;19126;47.472;7.850;2023-08-21T03:02:41;16.02;;;9.60;;
32760;SDS011;19126;47.472;7.850;2023-08-21T03:05:09;15.55;;;10.45;;
32760;SDS011;19126;47.472;7.850;2023-08-21T03:07:38;18.25;;;10.88;;
32760;SDS011;19126;47.472;7.850;2023-08-21T03:10:06;16.70;;;9.88;;
32760;SDS011;19126;47.472;7.850;2023-08-21T03:12:34;16.88;;;10.02;;
32760;SDS011;19126;47.472;7.850;2023-08-21T03:15:02;16.05;;;9.95;;
32760;SDS011;19126;47.472;7.850;2023-08-21T03:17:30;17.58;;;10.18;;
32760;SDS011;19126;47.472;7.850;2023-08-21T03:19:57;11.88;;;9.13;;
32760;SDS011;19126;47.472;7.850;2023-08-21T03:22:25;19.23;;;8.98;;
32760;SDS011;19126;47.472;7.850;2023-08-21T03:24:53;11.05;;;9.18;;
32760;SDS011;19126;47.472;7.850;2023-08-21T03:27:21;14.50;;;9.60;;
32760;SDS011;19126;47.472;7.850;2023-08-21T03:29:49;15.32;;;9.65;;
32760;SDS011;19126;47.472;7.850;2023-08-21T03:32:16;16.42;;;9.90;;
32760;SDS011;19126;47.472;7.850;2023-08-21T03:34:44;13.15;;;9.13;;
32760;SDS011;19126;47.472;7.850;2023-08-21T03:37:11;18.10;;;10.23;;
32760;SDS011;19126;47.472;7.850;2023-08-21T03:39:39;18.02;;;10.18;;
32760;SDS011;19126;47.472;7.850;2023-08-21T03:42:07;16.08;;;10.73;;
32760;SDS011;19126;47.472;7.850;2023-08-21T03:44:37;11.45;;;9.57;;
32760;SDS011;19126;47.472;7.850;2023-08-21T03:47:05;16.65;;;10.32;;
32760;SDS011;19126;47.472;7.850;2023-08-21T03:49:33;21.77;;;11.18;;
32760;SDS011;19126;47.472;7.850;2023-08-21T03:52:00;16.42;;;10.63;;
32760;SDS011;19126;47.472;7.850;2023-08-21T03:54:27;21.17;;;9.73;;
32760;SDS011;19126;47.472;7.850;2023-08-21T03:56:55;20.65;;;11.52;;
32760;SDS011;19126;47.472;7.850;2023-08-21T03:59:23;18.45;;;10.57;;
32760;SDS011;19126;47.472;7.850;2023-08-21T04:01:52;18.45;;;11.00;;
32760;SDS011;19126;47.472;7.850;2023-08-21T04:04:19;24.05;;;10.77;;
32760;SDS011;19126;47.472;7.850;2023-08-21T04:06:47;18.42;;;11.48;;
32760;SDS011;19126;47.472;7.850;2023-08-21T04:09:14;12.10;;;10.23;;
32760;SDS011;19126;47.472;7.850;2023-08-21T04:11:42;17.25;;;11.20;;
32760;SDS011;19126;47.472;7.850;2023-08-21T04:14:09;19.15;;;10.45;;
32760;SDS011;19126;47.472;7.850;2023-08-21T04:16:38;15.25;;;11.63;;
32760;SDS011;19126;47.472;7.850;2023-08-21T04:19:06;16.75;;;11.65;;
32760;SDS011;19126;47.472;7.850;2023-08-21T04:21:33;11.40;;;9.60;;
32760;SDS011;19126;47.472;7.850;2023-08-21T04:24:00;17.27;;;11.20;;
32760;SDS011;19126;47.472;7.850;2023-08-21T04:26:28;15.40;;;10.73;;
32760;SDS011;19126;47.472;7.850;2023-08-21T04:28:55;16.52;;;11.35;;
32760;SDS011;19126;47.472;7.850;2023-08-21T04:31:23;15.38;;;11.38;;
32760;SDS011;19126;47.472;7.850;2023-08-21T04:33:51;12.98;;;11.32;;
32760;SDS011;19126;47.472;7.850;2023-08-21T04:36:19;15.15;;;10.70;;
32760;SDS011;19126;47.472;7.850;2023-08-21T04:38:46;17.75;;;10.98;;
32760;SDS011;19126;47.472;7.850;2023-08-21T04:41:14;15.02;;;11.13;;
32760;SDS011;19126;47.472;7.850;2023-08-21T04:43:41;20.10;;;11.77;;
32760;SDS011;19126;47.472;7.850;2023-08-21T04:46:09;15.57;;;11.52;;
32760;SDS011;19126;47.472;7.850;2023-08-21T04:48:36;12.68;;;10.45;;
32760;SDS011;19126;47.472;7.850;2023-08-21T04:51:05;18.52;;;10.27;;
32760;SDS011;19126;47.472;7.850;2023-08-21T04:53:33;12.02;;;10.75;;
32760;SDS011;19126;47.472;7.850;2023-08-21T04:56:00;12.73;;;10.45;;
32760;SDS011;19126;47.472;7.850;2023-08-21T04:58:28;19.70;;;11.85;;
32760;SDS011;19126;47.472;7.850;2023-08-21T05:00:55;17.88;;;11.40;;
32760;SDS011;19126;47.472;7.850;2023-08-21T05:03:23;18.00;;;11.30;;
32760;SDS011;19126;47.472;7.850;2023-08-21T05:05:53;17.52;;;10.77;;
32760;SDS011;19126;47.472;7.850;2023-08-21T05:08:23;16.83;;;10.82;;
32760;SDS011;19126;47.472;7.850;2023-08-21T05:10:55;16.63;;;11.02;;
32760;SDS011;19126;47.472;7.850;2023-08-21T05:13:23;19.85;;;10.50;;
32760;SDS011;19126;47.472;7.850;2023-08-21T05:15:53;13.50;;;10.55;;
32760;SDS011;19126;47.472;7.850;2023-08-21T05:18:21;23.10;;;11.85;;
32760;SDS011;19126;47.472;7.850;2023-08-21T05:20:50;19.90;;;11.65;;
32760;SDS011;19126;47.472;7.850;2023-08-21T05:23:20;13.30;;;10.38;;
32760;SDS011;19126;47.472;7.850;2023-08-21T05:25:49;15.18;;;10.75;;
32760;SDS011;19126;47.472;7.850;2023-08-21T05:28:17;18.13;;;10.63;;
32760;SDS011;19126;47.472;7.850;2023-08-21T05:30:46;16.73;;;11.32;;
32760;SDS011;19126;47.472;7.850;2023-08-21T05:33:14;13.93;;;11.68;;
32760;SDS011;19126;47.472;7.850;2023-08-21T05:35:41;20.23;;;11.00;;
32760;SDS011;19126;47.472;7.850;2023-08-21T05:38:08;17.42;;;12.02;;
32760;SDS011;19126;47.472;7.850;2023-08-21T05:40:37;16.55;;;11.57;;
32760;SDS011;19126;47.472;7.850;2023-08-21T05:43:06;23.10;;;13.70;;
32760;SDS011;19126;47.472;7.850;2023-08-21T05:45:34;17.73;;;12.80;;
32760;SDS011;19126;47.472;7.850;2023-08-21T05:48:02;22.35;;;12.55;;
32760;SDS011;19126;47.472;7.850;2023-08-21T05:50:31;13.82;;;11.50;;
32760;SDS011;19126;47.472;7.850;2023-08-21T05:52:58;20.75;;;12.13;;
32760;SDS011;19126;47.472;7.850;2023-08-21T05:55:26;20.70;;;13.05;;
32760;SDS011;19126;47.472;7.850;2023-08-21T05:57:55;22.67;;;13.38;;
32760;SDS011;19126;47.472;7.850;2023-08-21T06:00:22;24.17;;;14.98;;
32760;SDS011;19126;47.472;7.850;2023-08-21T06:02:50;24.52;;;12.77;;
32760;SDS011;19126;47.472;7.850;2023-08-21T06:05:17;24.83;;;11.80;;
32760;SDS011;19126;47.472;7.850;2023-08-21T06:07:44;28.58;;;12.43;;
32760;SDS011;19126;47.472;7.850;2023-08-21T06:10:12;20.98;;;12.30;;
32760;SDS011;19126;47.472;7.850;2023-08-21T06:12:40;21.35;;;10.57;;
32760;SDS011;19126;47.472;7.850;2023-08-21T06:15:10;20.95;;;10.63;;
32760;SDS011;19126;47.472;7.850;2023-08-21T06:17:37;22.67;;;9.18;;
32760;SDS011;19126;47.472;7.850;2023-08-21T06:20:06;18.20;;;9.30;;
32760;SDS011;19126;47.472;7.850;2023-08-21T06:22:34;22.27;;;9.50;;
32760;SDS011;19126;47.472;7.850;2023-08-21T06:25:02;13.35;;;9.60;;
32760;SDS011;19126;47.472;7.850;2023-08-21T06:27:30;12.30;;;9.05;;
32760;SDS011;19126;47.472;7.850;2023-08-21T06:29:57;12.27;;;9.23;;
32760;SDS011;19126;47.472;7.850;2023-08-21T06:32:26;19.80;;;10.18;;
32760;SDS011;19126;47.472;7.850;2023-08-21T06:34:54;14.45;;;8.65;;
32760;SDS011;19126;47.472;7.850;2023-08-21T06:37:21;16.48;;;8.63;;
32760;SDS011;19126;47.472;7.850;2023-08-21T06:39:48;12.55;;;8.48;;
32760;SDS011;19126;47.472;7.850;2023-08-21T06:42:16;19.50;;;8.48;;
32760;SDS011;19126;47.472;7.850;2023-08-21T06:44:43;17.50;;;8.30;;
32760;SDS011;19126;47.472;7.850;2023-08-21T06:47:11;13.25;;;7.95;;
32760;SDS011;19126;47.472;7.850;2023-08-21T06:49:39;17.73;;;7.68;;
32760;SDS011;19126;47.472;7.850;2023-08-21T06:52:07;18.27;;;8.23;;
32760;SDS011;19126;47.472;7.850;2023-08-21T06:54:34;11.80;;;8.05;;
32760;SDS011;19126;47.472;7.850;2023-08-21T06:57:01;12.57;;;7.70;;
32760;SDS011;19126;47.472;7.850;2023-08-21T06:59:29;14.80;;;7.90;;
32760;SDS011;19126;47.472;7.850;2023-08-21T07:01:58;19.60;;;8.23;;
32760;SDS011;19126;47.472;7.850;2023-08-21T07:04:29;14.77;;;8.32;;
32760;SDS011;19126;47.472;7.850;2023-08-21T07:07:00;15.98;;;8.00;;
32760;SDS011;19126;47.472;7.850;2023-08-21T07:09:31;20.70;;;8.07;;
32760;SDS011;19126;47.472;7.850;2023-08-21T07:12:01;25.13;;;9.35;;
32760;SDS011;19126;47.472;7.850;2023-08-21T07:14:30;16.77;;;8.50;;
32760;SDS011;19126;47.472;7.850;2023-08-21T07:16:57;12.00;;;8.60;;
32760;SDS011;19126;47.472;7.850;2023-08-21T07:19:24;18.35;;;8.85;;
32760;SDS011;19126;47.472;7.850;2023-08-21T07:21:52;12.52;;;8.18;;
32760;SDS011;19126;47.472;7.850;2023-08-21T07:24:21;12.82;;;8.40;;
32760;SDS011;19126;47.472;7.850;2023-08-21T07:26:48;14.43;;;7.82;;
32760;SDS011;19126;47.472;7.850;2023-08-21T07:29:17;14.20;;;8.70;;
32760;SDS011;19126;47.472;7.850;2023-08-21T07:31:44;16.35;;;8.75;;
32760;SDS011;19126;47.472;7.850;2023-08-21T07:34:13;14.95;;;7.85;;
32760;SDS011;19126;47.472;7.850;2023-08-21T07:36:41;10.82;;;7.55;;
32760;SDS011;19126;47.472;7.850;2023-08-21T07:39:08;16.83;;;8.52;;
32760;SDS011;19126;47.472;7.850;2023-08-21T07:41:37;20.00;;;7.63;;
32760;SDS011;19126;47.472;7.850;2023-08-21T07:44:04;14.88;;;7.63;;
32760;SDS011;19126;47.472;7.850;2023-08-21T07:46:32;19.77;;;7.43;;
32760;SDS011;19126;47.472;7.850;2023-08-21T07:48:59;15.52;;;7.97;;
32760;SDS011;19126;47.472;7.850;2023-08-21T07:51:26;15.75;;;7.53;;
32760;SDS011;19126;47.472;7.850;2023-08-21T07:53:54;12.82;;;6.93;;
32760;SDS011;19126;47.472;7.850;2023-08-21T07:56:21;23.88;;;7.18;;
32760;SDS011;19126;47.472;7.850;2023-08-21T07:58:50;13.57;;;7.38;;
32760;SDS011;19126;47.472;7.850;2023-08-21T08:01:17;16.38;;;7.57;;
32760;SDS011;19126;47.472;7.850;2023-08-21T08:03:46;12.88;;;7.25;;
32760;SDS011;19126;47.472;7.850;2023-08-21T08:06:14;13.65;;;6.88;;
32760;SDS011;19126;47.472;7.850;2023-08-21T08:08:42;12.90;;;8.10;;
32760;SDS011;19126;47.472;7.850;2023-08-21T08:11:11;17.30;;;7.78;;
32760;SDS011;19126;47.472;7.850;2023-08-21T08:13:38;14.85;;;6.70;;
32760;SDS011;19126;47.472;7.850;2023-08-21T08:16:07;15.93;;;6.88;;
32760;SDS011;19126;47.472;7.850;2023-08-21T08:18:34;10.43;;;7.22;;
32760;SDS011;19126;47.472;7.850;2023-08-21T08:21:02;12.48;;;7.20;;
32760;SDS011;19126;47.472;7.850;2023-08-21T08:23:29;14.63;;;6.60;;
32760;SDS011;19126;47.472;7.850;2023-08-21T08:25:57;10.23;;;6.40;;
32760;SDS011;19126;47.472;7.850;2023-08-21T08:28:24;19.23;;;8.48;;
32760;SDS011;19126;47.472;7.850;2023-08-21T08:30:52;14.18;;;7.10;;
32760;SDS011;19126;47.472;7.850;2023-08-21T08:33:20;12.18;;;7.43;;
32760;SDS011;19126;47.472;7.850;2023-08-21T08:35:48;24.20;;;7.20;;
32760;SDS011;19126;47.472;7.850;2023-08-21T08:38:15;14.32;;;7.65;;
32760;SDS011;19126;47.472;7.850;2023-08-21T08:40:43;13.18;;;7.43;;
32760;SDS011;19126;47.472;7.850;2023-08-21T08:43:12;13.27;;;7.38;;
32760;SDS011;19126;47.472;7.850;2023-08-21T08:45:40;13.90;;;7.93;;
32760;SDS011;19126;47.472;7.850;2023-08-21T08:48:11;14.25;;;8.45;;
32760;SDS011;19126;47.472;7.850;2023-08-21T08:50:41;20.25;;;10.77;;
32760;SDS011;19126;47.472;7.850;2023-08-21T08:53:09;20.40;;;9.77;;
32760;SDS011;19126;47.472;7.850;2023-08-21T08:55:38;16.63;;;11.55;;
32760;SDS011;19126;47.472;7.850;2023-08-21T08:58:06;24.92;;;11.57;;
32760;SDS011;19126;47.472;7.850;2023-08-21T09:00:33;16.98;;;10.82;;
32760;SDS011;19126;47.472;7.850;2023-08-21T09:03:01;20.95;;;10.13;;
32760;SDS011;19126;47.472;7.850;2023-08-21T09:05:29;15.57;;;9.68;;
32760;SDS011;19126;47.472;7.850;2023-08-21T09:08:04;19.05;;;10.27;;
32760;SDS011;19126;47.472;7.850;2023-08-21T09:13:10;22.13;;;11.57;;
32760;SDS011;19126;47.472;7.850;2023-08-21T09:15:40;14.93;;;9.70;;
32760;SDS011;19126;47.472;7.850;2023-08-21T09:18:09;19.45;;;10.23;;
32760;SDS011;19126;47.472;7.850;2023-08-21T09:20:37;20.25;;;9.60;;
32760;SDS011;19126;47.472;7.850;2023-08-21T09:23:06;22.02;;;10.10;;
32760;SDS011;19126;47.472;7.850;2023-08-21T09:25:36;19.92;;;10.57;;
32760;SDS011;19126;47.472;7.850;2023-08-21T09:28:05;15.63;;;10.13;;
32760;SDS011;19126;47.472;7.850;2023-08-21T09:30:43;20.75;;;11.00;;
32760;SDS011;19126;47.472;7.850;2023-08-21T09:33:12;20.08;;;11.20;;
32760;SDS011;19126;47.472;7.850;2023-08-21T09:35:39;19.52;;;10.15;;
32760;SDS011;19126;47.472;7.850;2023-08-21T09:38:10;20.05;;;10.00;;
32760;SDS011;19126;47.472;7.850;2023-08-21T09:40:40;20.77;;;10.68;;
32760;SDS011;19126;47.472;7.850;2023-08-21T09:43:10;21.52;;;10.27;;
32760;SDS011;19126;47.472;7.850;2023-08-21T09:45:37;15.07;;;10.18;;
32760;SDS011;19126;47.472;7.850;2023-08-21T09:48:05;17.90;;;10.10;;
32760;SDS011;19126;47.472;7.850;2023-08-21T09:50:35;23.13;;;9.63;;
32760;SDS011;19126;47.472;7.850;2023-08-21T09:53:03;15.43;;;10.13;;
32760;SDS011;19126;47.472;7.850;2023-08-21T09:55:35;15.95;;;10.02;;
32760;SDS011;19126;47.472;7.850;2023-08-21T09:58:04;18.63;;;10.25;;
32760;SDS011;19126;47.472;7.850;2023-08-21T10:00:33;18.30;;;10.20;;
32760;SDS011;19126;47.472;7.850;2023-08-21T10:03:04;17.83;;;10.43;;
32760;SDS011;19126;47.472;7.850;2023-08-21T10:05:36;18.00;;;9.80;;
32760;SDS011;19126;47.472;7.850;2023-08-21T10:08:05;16.35;;;9.30;;
32760;SDS011;19126;47.472;7.850;2023-08-21T10:10:35;17.80;;;9.55;;
32760;SDS011;19126;47.472;7.850;2023-08-21T10:13:04;11.93;;;9.10;;
32760;SDS011;19126;47.472;7.850;2023-08-21T10:15:33;17.38;;;8.52;;
32760;SDS011;19126;47.472;7.850;2023-08-21T10:18:17;12.52;;;9.57;;
32760;SDS011;19126;47.472;7.850;2023-08-21T10:20:46;14.93;;;9.25;;
32760;SDS011;19126;47.472;7.850;2023-08-21T10:23:24;23.60;;;9.25;;
32760;SDS011;19126;47.472;7.850;2023-08-21T10:25:56;19.00;;;9.70;;
32760;SDS011;19126;47.472;7.850;2023-08-21T10:28:25;17.80;;;9.65;;
32760;SDS011;19126;47.472;7.850;2023-08-21T10:31:30;16.52;;;9.27;;
32760;SDS011;19126;47.472;7.850;2023-08-21T10:34:00;17.00;;;8.40;;
32760;SDS011;19126;47.472;7.850;2023-08-21T10:39:37;13.65;;;8.57;;
32760;SDS011;19126;47.472;7.850;2023-08-21T10:42:09;20.42;;;8.68;;
32760;SDS011;19126;47.472;7.850;2023-08-21T10:44:49;14.55;;;8.55;;
32760;SDS011;19126;47.472;7.850;2023-08-21T10:49:50;26.50;;;9.02;;
32760;SDS011;19126;47.472;7.850;2023-08-21T10:52:23;20.57;;;8.27;;
32760;SDS011;19126;47.472;7.850;2023-08-21T10:54:52;14.85;;;8.55;;
32760;SDS011;19126;47.472;7.850;2023-08-21T10:57:23;22.52;;;8.77;;
32760;SDS011;19126;47.472;7.850;2023-08-21T10:59:52;14.40;;;7.75;;
32760;SDS011;19126;47.472;7.850;2023-08-21T11:02:24;18.50;;;7.85;;
32760;SDS011;19126;47.472;7.850;2023-08-21T11:04:54;20.88;;;9.18;;
32760;SDS011;19126;47.472;7.850;2023-08-21T11:07:22;17.75;;;8.63;;
32760;SDS011;19126;47.472;7.850;2023-08-21T11:09:49;20.75;;;8.70;;
32760;SDS011;19126;47.472;7.850;2023-08-21T11:12:18;20.77;;;8.48;;
32760;SDS011;19126;47.472;7.850;2023-08-21T11:14:49;13.82;;;7.93;;
32760;SDS011;19126;47.472;7.850;2023-08-21T11:17:16;12.90;;;8.10;;
32760;SDS011;19126;47.472;7.850;2023-08-21T11:19:44;19.73;;;7.68;;
32760;SDS011;19126;47.472;7.850;2023-08-21T11:22:13;20.70;;;8.88;;
32760;SDS011;19126;47.472;7.850;2023-08-21T11:24:41;12.32;;;8.07;;
32760;SDS011;19126;47.472;7.850;2023-08-21T11:27:11;13.70;;;7.67;;
32760;SDS011;19126;47.472;7.850;2023-08-21T11:29:40;12.63;;;7.38;;
32760;SDS011;19126;47.472;7.850;2023-08-21T11:32:12;17.00;;;8.10;;
32760;SDS011;19126;47.472;7.850;2023-08-21T11:34:41;15.73;;;7.53;;
32760;SDS011;19126;47.472;7.850;2023-08-21T11:37:13;19.63;;;7.88;;
32760;SDS011;19126;47.472;7.850;2023-08-21T11:39:42;12.45;;;7.68;;
32760;SDS011;19126;47.472;7.850;2023-08-21T11:42:12;14.43;;;7.80;;
32760;SDS011;19126;47.472;7.850;2023-08-21T11:44:41;16.95;;;7.65;;
32760;SDS011;19126;47.472;7.850;2023-08-21T11:47:12;19.33;;;8.10;;
32760;SDS011;19126;47.472;7.850;2023-08-21T11:49:41;16.90;;;8.27;;
32760;SDS011;19126;47.472;7.850;2023-08-21T11:52:10;21.65;;;7.53;;
32760;SDS011;19126;47.472;7.850;2023-08-21T11:54:39;19.10;;;8.73;;
32760;SDS011;19126;47.472;7.850;2023-08-21T11:57:07;14.82;;;7.38;;
32760;SDS011;19126;47.472;7.850;2023-08-21T11:59:38;11.77;;;7.75;;
32760;SDS011;19126;47.472;7.850;2023-08-21T12:02:10;16.02;;;7.32;;
32760;SDS011;19126;47.472;7.850;2023-08-21T12:04:51;18.05;;;7.35;;
32760;SDS011;19126;47.472;7.850;2023-08-21T12:07:19;18.08;;;8.13;;
32760;SDS011;19126;47.472;7.850;2023-08-21T12:09:47;13.98;;;7.50;;
32760;SDS011;19126;47.472;7.850;2023-08-21T12:12:15;12.25;;;7.80;;
32760;SDS011;19126;47.472;7.850;2023-08-21T12:14:43;12.68;;;7.97;;
32760;SDS011;19126;47.472;7.850;2023-08-21T12:17:10;15.55;;;7.28;;
32760;SDS011;19126;47.472;7.850;2023-08-21T12:19:39;18.33;;;7.97;;
32760;SDS011;19126;47.472;7.850;2023-08-21T12:22:08;16.13;;;7.83;;
32760;SDS011;19126;47.472;7.850;2023-08-21T12:24:37;10.40;;;6.88;;
32760;SDS011;19126;47.472;7.850;2023-08-21T12:27:05;30.52;;;7.80;;
32760;SDS011;19126;47.472;7.850;2023-08-21T12:29:33;16.38;;;7.60;;
32760;SDS011;19126;47.472;7.850;2023-08-21T12:32:01;18.92;;;7.22;;
32760;SDS011;19126;47.472;7.850;2023-08-21T12:34:28;16.35;;;7.35;;
32760;SDS011;19126;47.472;7.850;2023-08-21T12:36:57;17.45;;;7.07;;
32760;SDS011;19126;47.472;7.850;2023-08-21T12:39:24;12.43;;;6.57;;
32760;SDS011;19126;47.472;7.850;2023-08-21T12:41:52;19.20;;;7.75;;
32760;SDS011;19126;47.472;7.850;2023-08-21T12:44:19;15.48;;;7.22;;
32760;SDS011;19126;47.472;7.850;2023-08-21T12:46:46;16.15;;;7.15;;
32760;SDS011;19126;47.472;7.850;2023-08-21T12:49:14;14.98;;;7.22;;
32760;SDS011;19126;47.472;7.850;2023-08-21T12:51:41;17.65;;;7.05;;
32760;SDS011;19126;47.472;7.850;2023-08-21T12:54:10;14.60;;;6.40;;
32760;SDS011;19126;47.472;7.850;2023-08-21T12:56:37;15.40;;;6.82;;
32760;SDS011;19126;47.472;7.850;2023-08-21T12:59:05;10.85;;;6.68;;
32760;SDS011;19126;47.472;7.850;2023-08-21T13:01:32;14.45;;;6.30;;
32760;SDS011;19126;47.472;7.850;2023-08-21T13:04:00;15.18;;;6.15;;
32760;SDS011;19126;47.472;7.850;2023-08-21T13:06:28;15.40;;;6.68;;
32760;SDS011;19126;47.472;7.850;2023-08-21T13:08:55;14.98;;;6.07;;
32760;SDS011;19126;47.472;7.850;2023-08-21T13:11:24;18.85;;;6.47;;
32760;SDS011;19126;47.472;7.850;2023-08-21T13:13:52;10.50;;;6.43;;
32760;SDS011;19126;47.472;7.850;2023-08-21T13:16:19;12.18;;;5.38;;
32760;SDS011;19126;47.472;7.850;2023-08-21T13:18:47;9.35;;;5.53;;
32760;SDS011;19126;47.472;7.850;2023-08-21T13:21:14;11.80;;;5.38;;
32760;SDS011;19126;47.472;7.850;2023-08-21T13:23:41;13.38;;;5.80;;
32760;SDS011;19126;47.472;7.850;2023-08-21T13:26:08;23.58;;;6.32;;
32760;SDS011;19126;47.472;7.850;2023-08-21T13:28:37;13.85;;;6.15;;
32760;SDS011;19126;47.472;7.850;2023-08-21T13:31:04;8.75;;;5.43;;
32760;SDS011;19126;47.472;7.850;2023-08-21T13:33:43;13.05;;;5.68;;
32760;SDS011;19126;47.472;7.850;2023-08-21T13:36:11;16.48;;;6.03;;
32760;SDS011;19126;47.472;7.850;2023-08-21T13:38:38;10.70;;;5.43;;
32760;SDS011;19126;47.472;7.850;2023-08-21T13:41:06;16.00;;;5.50;;
32760;SDS011;19126;47.472;7.850;2023-08-21T13:43:34;15.63;;;5.82;;
32760;SDS011;19126;47.472;7.850;2023-08-21T13:46:03;14.25;;;5.38;;
32760;SDS011;19126;47.472;7.850;2023-08-21T13:48:31;13.55;;;5.40;;
32760;SDS011;19126;47.472;7.850;2023-08-21T13:50:58;10.25;;;5.22;;
32760;SDS011;19126;47.472;7.850;2023-08-21T13:53:26;12.68;;;5.93;;
32760;SDS011;19126;47.472;7.850;2023-08-21T13:55:53;17.88;;;5.50;;
32760;SDS011;19126;47.472;7.850;2023-08-21T13:58:20;9.45;;;5.15;;
32760;SDS011;19126;47.472;7.850;2023-08-21T14:00:49;18.23;;;5.57;;
32760;SDS011;19126;47.472;7.850;2023-08-21T14:03:16;18.00;;;5.68;;
32760;SDS011;19126;47.472;7.850;2023-08-21T14:05:44;11.93;;;4.85;;
32760;SDS011;19126;47.472;7.850;2023-08-21T14:08:11;9.63;;;5.20;;
32760;SDS011;19126;47.472;7.850;2023-08-21T14:10:38;18.55;;;5.75;;
32760;SDS011;19126;47.472;7.850;2023-08-21T14:13:05;10.30;;;4.63;;
32760;SDS011;19126;47.472;7.850;2023-08-21T14:15:34;13.65;;;5.25;;
32760;SDS011;19126;47.472;7.850;2023-08-21T14:18:03;11.93;;;4.63;;
32760;SDS011;19126;47.472;7.850;2023-08-21T14:20:30;11.85;;;5.28;;
32760;SDS011;19126;47.472;7.850;2023-08-21T14:22:57;7.90;;;4.57;;
32760;SDS011;19126;47.472;7.850;2023-08-21T14:25:25;16.15;;;4.90;;
32760;SDS011;19126;47.472;7.850;2023-08-21T14:27:52;11.07;;;4.30;;
32760;SDS011;19126;47.472;7.850;2023-08-21T14:30:20;13.30;;;4.95;;
32760;SDS011;19126;47.472;7.850;2023-08-21T14:32:47;12.40;;;5.60;;
32760;SDS011;19126;47.472;7.850;2023-08-21T14:35:16;9.20;;;4.43;;
32760;SDS011;19126;47.472;7.850;2023-08-21T14:37:43;10.65;;;4.25;;
32760;SDS011;19126;47.472;7.850;2023-08-21T14:40:11;9.93;;;4.25;;
32760;SDS011;19126;47.472;7.850;2023-08-21T14:42:38;14.55;;;4.70;;
32760;SDS011;19126;47.472;7.850;2023-08-21T14:45:06;15.63;;;4.28;;
32760;SDS011;19126;47.472;7.850;2023-08-21T14:47:35;9.07;;;4.50;;